PWSweather.com
Personal Weather Stations
Station Observations
KFLNICEV15
Indigo Village, Niceville, FL 32578

Indigo VillageNiceville, FL 32578

Lat: 30.478505, Lon: -86.412487

Elevation: 79

Station Type: Davis/Vantage Pro

http://k4thdweather.net

Latest ConditionsUpdated 10:15:23 PM CST Thursday, Dec 13, 2018
Currently Today's Max Today's Min Today's Average
Temperature 59.6°F15.3°C 61.4°F16.3°C 51.7°F10.9°C 57.1°F13.9°C
Dew Point 58.8°F14.9°C 58.8°F14.9°C 47.6°F8.7°C 53.0°F11.7°C
Winds 1.2 mph ENE1.9 kmh ENE 4.6 mph -7.4 kmh - - 1.3 mph 2.1 kmh
Wind Gusts 2.3 mph3.7 kmh 10.4 mph16.7 kmh - -
Humidity 97% 97% 76% 87%
Pressure 29.91 in1012.9 mb 30.15 in1021.0 mb 29.90 in1012.5 mb -
Precipitation - 0.10 in2.5 mm - -
Hour Temp Dew Point Humidity Winds Wind Gusts Pressure Precip Precip Rate Daily Precip Total
10:15 PM 59.6°F15.3°C 58.8°F14.9°C 97% 1.2 mph ENE1.9 kmh ENE 2.3 mph3.7 kmh 29.91 in1012.9 mb - 0.07 in1.8 mm 0.10 in2.5 mm
10:10 PM 59.5°F15.3°C 58.6°F14.8°C 97% 3.5 mph ENE5.6 kmh ENE -- 29.90 in1012.5 mb - 0.05 in1.3 mm 0.08 in2.0 mm
10:00 PM 59.4°F15.2°C 58.3°F14.6°C 96% 3.5 mph E5.6 kmh E 8.1 mph13.0 kmh 29.90 in1012.5 mb - 0.05 in1.3 mm 0.08 in2.0 mm
09:50 PM 59.3°F15.2°C 58.2°F14.6°C 96% 1.2 mph ESE1.9 kmh ESE 8.1 mph13.0 kmh 29.90 in1012.5 mb - 0.04 in1.0 mm 0.07 in1.8 mm
09:40 PM 59.3°F15.2°C 58.1°F14.5°C 96% 1.2 mph SSE1.9 kmh SSE 3.5 mph5.6 kmh 29.90 in1012.5 mb - 0.02 in0.5 mm 0.05 in1.3 mm
09:35 PM 59.2°F15.1°C 57.8°F14.3°C 95% 1.2 mph SE1.9 kmh SE 4.6 mph7.4 kmh 29.91 in1012.9 mb - 0.01 in0.3 mm 0.04 in1.0 mm
09:25 PM 58.9°F14.9°C 57.5°F14.2°C 95% Calm Calm 1.2 mph1.9 kmh 29.91 in1012.9 mb - 0.00 in0.0 mm 0.03 in0.8 mm
09:20 PM 58.8°F14.9°C 57.4°F14.1°C 95% Calm Calm 1.2 mph1.9 kmh 29.91 in1012.9 mb - 0.00 in0.0 mm 0.03 in0.8 mm
09:15 PM 58.7°F14.8°C 57.2°F14.0°C 95% Calm Calm -- 29.91 in1012.9 mb - 0.01 in0.3 mm 0.03 in0.8 mm
09:10 PM 58.6°F14.8°C 57.5°F14.2°C 96% 1.2 mph SE1.9 kmh SE 3.5 mph5.6 kmh 29.91 in1012.9 mb - 0.01 in0.3 mm 0.03 in0.8 mm
08:55 PM 58.3°F14.6°C 57.2°F14.0°C 96% Calm Calm 2.3 mph3.7 kmh 29.91 in1012.9 mb - 0.02 in0.5 mm 0.03 in0.8 mm
08:45 PM 58.2°F14.6°C 57.1°F13.9°C 96% Calm Calm 2.3 mph3.7 kmh 29.92 in1013.2 mb - 0.02 in0.5 mm 0.03 in0.8 mm
08:40 PM 58.2°F14.6°C 57.1°F13.9°C 96% Calm Calm 1.2 mph1.9 kmh 29.91 in1012.9 mb - 0.02 in0.5 mm 0.03 in0.8 mm
08:35 PM 58.2°F14.6°C 57.0°F13.9°C 96% Calm Calm 1.2 mph1.9 kmh 29.92 in1013.2 mb - 0.02 in0.5 mm 0.03 in0.8 mm
08:30 PM 58.1°F14.5°C 57.0°F13.9°C 96% Calm Calm 1.2 mph1.9 kmh 29.92 in1013.2 mb - 0.02 in0.5 mm 0.03 in0.8 mm
08:25 PM 58.1°F14.5°C 57.0°F13.9°C 96% Calm Calm 1.2 mph1.9 kmh 29.93 in1013.5 mb - 0.02 in0.5 mm 0.03 in0.8 mm
08:10 PM 57.9°F14.4°C 56.8°F13.8°C 96% 1.2 mph SSE1.9 kmh SSE -- 29.92 in1013.2 mb - 0.02 in0.5 mm 0.03 in0.8 mm
08:00 PM 57.9°F14.4°C 56.8°F13.8°C 96% 1.2 mph E1.9 kmh E 2.3 mph3.7 kmh 29.92 in1013.2 mb - 0.03 in0.8 mm 0.03 in0.8 mm
07:55 PM 57.9°F14.4°C 56.7°F13.7°C 96% Calm Calm 6.9 mph11.1 kmh 29.93 in1013.5 mb - 0.03 in0.8 mm 0.03 in0.8 mm
07:45 PM 57.9°F14.4°C 56.8°F13.8°C 96% Calm Calm -- 29.93 in1013.5 mb - 0.03 in0.8 mm 0.03 in0.8 mm
07:40 PM 57.9°F14.4°C 56.8°F13.8°C 96% Calm Calm -- 29.93 in1013.5 mb - 0.03 in0.8 mm 0.03 in0.8 mm
07:35 PM 57.9°F14.4°C 56.8°F13.8°C 96% Calm Calm 2.3 mph3.7 kmh 29.94 in1013.9 mb - 0.03 in0.8 mm 0.03 in0.8 mm
07:25 PM 58.0°F14.4°C 56.6°F13.7°C 95% Calm Calm -- 29.94 in1013.9 mb - 0.02 in0.5 mm 0.02 in0.5 mm
07:15 PM 57.9°F14.4°C 56.5°F13.6°C 95% Calm Calm -- 29.95 in1014.2 mb - 0.02 in0.5 mm 0.02 in0.5 mm
07:10 PM 57.9°F14.4°C 56.5°F13.6°C 95% Calm Calm 1.2 mph1.9 kmh 29.95 in1014.2 mb - 0.01 in0.3 mm 0.01 in0.3 mm
07:00 PM 57.9°F14.4°C 56.5°F13.6°C 95% Calm Calm 1.2 mph1.9 kmh 29.95 in1014.2 mb - 0.01 in0.3 mm 0.01 in0.3 mm
06:55 PM 58.0°F14.4°C 56.3°F13.5°C 94% Calm Calm 3.5 mph5.6 kmh 29.95 in1014.2 mb - 0.01 in0.3 mm 0.01 in0.3 mm
06:45 PM 58.1°F14.5°C 56.4°F13.6°C 94% 1.2 mph E1.9 kmh E 4.6 mph7.4 kmh 29.95 in1014.2 mb - 0.01 in0.3 mm 0.01 in0.3 mm
06:35 PM 58.3°F14.6°C 56.6°F13.7°C 94% Calm Calm 1.2 mph1.9 kmh 29.96 in1014.6 mb - 0.01 in0.3 mm 0.01 in0.3 mm
06:30 PM 58.4°F14.7°C 56.7°F13.7°C 94% Calm Calm 1.2 mph1.9 kmh 29.96 in1014.6 mb - 0.01 in0.3 mm 0.01 in0.3 mm
06:25 PM 58.4°F14.7°C 56.4°F13.6°C 93% Calm Calm 2.3 mph3.7 kmh 29.96 in1014.6 mb - 0.01 in0.3 mm 0.01 in0.3 mm
06:15 PM 58.6°F14.8°C 56.6°F13.7°C 93% Calm Calm 1.2 mph1.9 kmh 29.96 in1014.6 mb - 0.01 in0.3 mm 0.01 in0.3 mm
06:00 PM 59.0°F15.0°C 56.7°F13.7°C 92% Calm Calm 2.3 mph3.7 kmh 29.96 in1014.6 mb - 0.00 in0.0 mm 0.00 in0.0 mm
05:50 PM 59.3°F15.2°C 56.4°F13.6°C 90% Calm Calm 1.2 mph1.9 kmh 29.96 in1014.6 mb - 0.00 in0.0 mm 0.00 in0.0 mm
05:41 PM 59.7°F15.4°C 56.5°F13.6°C 89% Calm Calm -- 29.96 in1014.6 mb - 0.00 in0.0 mm 0.00 in0.0 mm
05:35 PM 59.9°F15.5°C 56.3°F13.5°C 88% Calm Calm 2.3 mph3.7 kmh 29.96 in1014.6 mb - 0.00 in0.0 mm 0.00 in0.0 mm
05:30 PM 60.0°F15.6°C 56.1°F13.4°C 87% Calm Calm -- 29.96 in1014.6 mb - 0.00 in0.0 mm 0.00 in0.0 mm
05:25 PM 60.1°F15.6°C 55.9°F13.3°C 86% Calm Calm -- 29.96 in1014.6 mb - 0.00 in0.0 mm 0.00 in0.0 mm
05:20 PM 60.1°F15.6°C 55.6°F13.1°C 85% Calm Calm 1.2 mph1.9 kmh 29.96 in1014.6 mb - 0.00 in0.0 mm 0.00 in0.0 mm
05:15 PM 60.1°F15.6°C 55.6°F13.1°C 85% Calm Calm 2.3 mph3.7 kmh 29.96 in1014.6 mb - 0.00 in0.0 mm 0.00 in0.0 mm
05:10 PM 60.2°F15.7°C 55.7°F13.2°C 85% Calm Calm -- 29.96 in1014.6 mb - 0.00 in0.0 mm 0.00 in0.0 mm
05:00 PM 60.3°F15.7°C 55.4°F13.0°C 84% Calm Calm -- 29.96 in1014.6 mb - 0.00 in0.0 mm 0.00 in0.0 mm
04:55 PM 60.3°F15.7°C 55.5°F13.1°C 84% Calm Calm 2.3 mph3.7 kmh 29.97 in1014.9 mb - 0.00 in0.0 mm 0.00 in0.0 mm
04:50 PM 60.4°F15.8°C 55.5°F13.1°C 84% Calm Calm 3.5 mph5.6 kmh 29.97 in1014.9 mb - 0.00 in0.0 mm 0.00 in0.0 mm
04:45 PM 60.5°F15.8°C 55.6°F13.1°C 84% Calm Calm 2.3 mph3.7 kmh 29.97 in1014.9 mb - 0.00 in0.0 mm 0.00 in0.0 mm
04:40 PM 60.5°F15.8°C 55.3°F12.9°C 83% Calm Calm -- 29.97 in1014.9 mb - 0.00 in0.0 mm 0.00 in0.0 mm
04:35 PM 60.6°F15.9°C 55.4°F13.0°C 83% Calm Calm -- 29.97 in1014.9 mb - 0.00 in0.0 mm 0.00 in0.0 mm
04:30 PM 60.7°F15.9°C 55.5°F13.1°C 83% Calm Calm -- 29.97 in1014.9 mb - 0.00 in0.0 mm 0.00 in0.0 mm
04:25 PM 60.7°F15.9°C 55.2°F12.9°C 82% Calm Calm 1.2 mph1.9 kmh 29.98 in1015.2 mb - 0.00 in0.0 mm 0.00 in0.0 mm
04:20 PM 60.8°F16.0°C 55.3°F12.9°C 82% 1.2 mph ESE1.9 kmh ESE 8.1 mph13.0 kmh 29.98 in1015.2 mb - 0.00 in0.0 mm 0.00 in0.0 mm
04:15 PM 60.9°F16.1°C 55.4°F13.0°C 82% Calm Calm -- 29.98 in1015.2 mb - 0.00 in0.0 mm 0.00 in0.0 mm
04:10 PM 61.0°F16.1°C 55.1°F12.8°C 81% Calm Calm -- 29.98 in1015.2 mb - 0.00 in0.0 mm 0.00 in0.0 mm
04:00 PM 61.1°F16.2°C 55.2°F12.9°C 81% Calm Calm 2.3 mph3.7 kmh 29.98 in1015.2 mb - 0.00 in0.0 mm 0.00 in0.0 mm
03:55 PM 61.1°F16.2°C 55.2°F12.9°C 81% 1.2 mph E1.9 kmh E 2.3 mph3.7 kmh 29.98 in1015.2 mb - 0.00 in0.0 mm 0.00 in0.0 mm
03:50 PM 61.1°F16.2°C 55.2°F12.9°C 81% Calm Calm 3.5 mph5.6 kmh 29.98 in1015.2 mb - 0.00 in0.0 mm 0.00 in0.0 mm
03:45 PM 61.2°F16.2°C 55.0°F12.8°C 80% Calm Calm 2.3 mph3.7 kmh 29.98 in1015.2 mb - 0.00 in0.0 mm 0.00 in0.0 mm
03:40 PM 61.2°F16.2°C 55.0°F12.8°C 80% Calm Calm 1.2 mph1.9 kmh 29.98 in1015.2 mb - 0.00 in0.0 mm 0.00 in0.0 mm
03:35 PM 61.3°F16.3°C 55.1°F12.8°C 80% Calm Calm -- 29.98 in1015.2 mb - 0.00 in0.0 mm 0.00 in0.0 mm
03:30 PM 61.4°F16.3°C 55.2°F12.9°C 80% Calm Calm -- 29.98 in1015.2 mb - 0.00 in0.0 mm 0.00 in0.0 mm
03:25 PM 61.4°F16.3°C 55.2°F12.9°C 80% Calm Calm -- 29.98 in1015.2 mb - 0.00 in0.0 mm 0.00 in0.0 mm
03:20 PM 61.4°F16.3°C 54.8°F12.7°C 79% 2.3 mph ENE3.7 kmh ENE 5.8 mph9.3 kmh 29.99 in1015.6 mb - 0.00 in0.0 mm 0.00 in0.0 mm
03:15 PM 61.4°F16.3°C 54.8°F12.7°C 79% 1.2 mph ESE1.9 kmh ESE 4.6 mph7.4 kmh 29.99 in1015.6 mb - 0.00 in0.0 mm 0.00 in0.0 mm
03:11 PM 61.3°F16.3°C 54.4°F12.4°C 78% Calm Calm 2.3 mph3.7 kmh 29.99 in1015.6 mb - 0.00 in0.0 mm 0.00 in0.0 mm
03:00 PM 61.4°F16.3°C 54.4°F12.4°C 78% Calm Calm 2.3 mph3.7 kmh 29.99 in1015.6 mb - 0.00 in0.0 mm 0.00 in0.0 mm
02:55 PM 61.4°F16.3°C 54.4°F12.4°C 78% Calm Calm 3.5 mph5.6 kmh 29.99 in1015.6 mb - 0.00 in0.0 mm 0.00 in0.0 mm
02:50 PM 61.3°F16.3°C 54.4°F12.4°C 78% Calm Calm 1.2 mph1.9 kmh 29.99 in1015.6 mb - 0.00 in0.0 mm 0.00 in0.0 mm
02:45 PM 61.3°F16.3°C 54.3°F12.4°C 78% 1.2 mph ESE1.9 kmh ESE 5.8 mph9.3 kmh 29.99 in1015.6 mb - 0.00 in0.0 mm 0.00 in0.0 mm
02:35 PM 61.1°F16.2°C 53.8°F12.1°C 77% 1.2 mph E1.9 kmh E 6.9 mph11.1 kmh 29.99 in1015.6 mb - 0.00 in0.0 mm 0.00 in0.0 mm
02:31 PM 61.0°F16.1°C 54.1°F12.3°C 78% 1.2 mph E1.9 kmh E 3.5 mph5.6 kmh 29.99 in1015.6 mb - 0.00 in0.0 mm 0.00 in0.0 mm
02:20 PM 60.9°F16.1°C 53.6°F12.0°C 77% 1.2 mph ESE1.9 kmh ESE 5.8 mph9.3 kmh 29.99 in1015.6 mb - 0.00 in0.0 mm 0.00 in0.0 mm
02:10 PM 60.9°F16.1°C 53.6°F12.0°C 77% 1.2 mph E1.9 kmh E 8.1 mph13.0 kmh 30.00 in1015.9 mb - 0.00 in0.0 mm 0.00 in0.0 mm
02:00 PM 60.9°F16.1°C 53.3°F11.8°C 76% Calm Calm 2.3 mph3.7 kmh 30.00 in1015.9 mb - 0.00 in0.0 mm 0.00 in0.0 mm
01:50 PM 60.8°F16.0°C 53.6°F12.0°C 77% 1.2 mph ESE1.9 kmh ESE 3.5 mph5.6 kmh 30.00 in1015.9 mb - 0.00 in0.0 mm 0.00 in0.0 mm
01:40 PM 60.6°F15.9°C 53.4°F11.9°C 77% 2.3 mph ESE3.7 kmh ESE 5.8 mph9.3 kmh 30.01 in1016.3 mb - 0.00 in0.0 mm 0.00 in0.0 mm
01:31 PM 60.4°F15.8°C 53.1°F11.7°C 77% 2.3 mph SE3.7 kmh SE 3.5 mph5.6 kmh 30.01 in1016.3 mb - 0.00 in0.0 mm 0.00 in0.0 mm
01:20 PM 60.2°F15.7°C 53.3°F11.8°C 78% 2.3 mph E3.7 kmh E 6.9 mph11.1 kmh 30.01 in1016.3 mb - 0.00 in0.0 mm 0.00 in0.0 mm
01:10 PM 59.8°F15.4°C 52.9°F11.6°C 78% 2.3 mph NE3.7 kmh NE 3.5 mph5.6 kmh 30.02 in1016.6 mb - 0.00 in0.0 mm 0.00 in0.0 mm
01:00 PM 59.8°F15.4°C 52.9°F11.6°C 78% 1.2 mph ESE1.9 kmh ESE 5.8 mph9.3 kmh 30.02 in1016.6 mb - 0.00 in0.0 mm 0.00 in0.0 mm
12:55 PM 59.9°F15.5°C 53.0°F11.7°C 78% Calm Calm 3.5 mph5.6 kmh 30.03 in1016.9 mb - 0.00 in0.0 mm 0.00 in0.0 mm
12:40 PM 59.6°F15.3°C 52.7°F11.5°C 78% 2.3 mph E3.7 kmh E 3.5 mph5.6 kmh 30.03 in1016.9 mb - 0.00 in0.0 mm 0.00 in0.0 mm
12:35 PM 59.4°F15.2°C 52.6°F11.4°C 78% 1.2 mph E1.9 kmh E 3.5 mph5.6 kmh 30.04 in1017.3 mb - 0.00 in0.0 mm 0.00 in0.0 mm
12:30 PM 59.3°F15.2°C 52.8°F11.6°C 79% Calm Calm 2.3 mph3.7 kmh 30.04 in1017.3 mb - 0.00 in0.0 mm 0.00 in0.0 mm
12:25 PM 59.1°F15.1°C 52.3°F11.3°C 78% 1.2 mph E1.9 kmh E 3.5 mph5.6 kmh 30.04 in1017.3 mb - 0.00 in0.0 mm 0.00 in0.0 mm
12:20 PM 59.0°F15.0°C 52.1°F11.2°C 78% 2.3 mph ESE3.7 kmh ESE 4.6 mph7.4 kmh 30.04 in1017.3 mb - 0.00 in0.0 mm 0.00 in0.0 mm
12:15 PM 58.8°F14.9°C 52.3°F11.3°C 79% 1.2 mph SW1.9 kmh SW 6.9 mph11.1 kmh 30.05 in1017.6 mb - 0.00 in0.0 mm 0.00 in0.0 mm
12:00 PM 58.6°F14.8°C 52.1°F11.2°C 79% 2.3 mph ESE3.7 kmh ESE 6.9 mph11.1 kmh 30.05 in1017.6 mb - 0.00 in0.0 mm 0.00 in0.0 mm
11:55 AM 58.4°F14.7°C 51.9°F11.1°C 79% 2.3 mph SE3.7 kmh SE 10.4 mph16.7 kmh 30.05 in1017.6 mb - 0.00 in0.0 mm 0.00 in0.0 mm
11:50 AM 58.3°F14.6°C 51.8°F11.0°C 79% 2.3 mph ESE3.7 kmh ESE 3.5 mph5.6 kmh 30.05 in1017.6 mb - 0.00 in0.0 mm 0.00 in0.0 mm
11:45 AM 58.1°F14.5°C 51.6°F10.9°C 79% 3.5 mph NE5.6 kmh NE 8.1 mph13.0 kmh 30.06 in1017.9 mb - 0.00 in0.0 mm 0.00 in0.0 mm
11:41 AM 58.0°F14.4°C 51.5°F10.8°C 79% 4.6 mph E7.4 kmh E 8.1 mph13.0 kmh 30.06 in1017.9 mb - 0.00 in0.0 mm 0.00 in0.0 mm
11:30 AM 57.7°F14.3°C 51.2°F10.7°C 79% 3.5 mph SE5.6 kmh SE 10.4 mph16.7 kmh 30.07 in1018.3 mb - 0.00 in0.0 mm 0.00 in0.0 mm
11:25 AM 57.5°F14.2°C 51.4°F10.8°C 80% 3.5 mph SE5.6 kmh SE 4.6 mph7.4 kmh 30.06 in1017.9 mb - 0.00 in0.0 mm 0.00 in0.0 mm
11:15 AM 57.2°F14.0°C 51.1°F10.6°C 80% 3.5 mph SE5.6 kmh SE 9.2 mph14.8 kmh 30.07 in1018.3 mb - 0.00 in0.0 mm 0.00 in0.0 mm
10:55 AM 56.7°F13.7°C 50.9°F10.5°C 81% 1.2 mph E1.9 kmh E 3.5 mph5.6 kmh 30.07 in1018.3 mb - 0.00 in0.0 mm 0.00 in0.0 mm
10:45 AM 56.3°F13.5°C 50.9°F10.5°C 82% 1.2 mph SE1.9 kmh SE 6.9 mph11.1 kmh 30.08 in1018.6 mb - 0.00 in0.0 mm 0.00 in0.0 mm
10:25 AM 55.5°F13.1°C 50.4°F10.2°C 83% 4.6 mph SSE7.4 kmh SSE 4.6 mph7.4 kmh 30.09 in1019.0 mb - 0.00 in0.0 mm 0.00 in0.0 mm
10:15 AM 55.1°F12.8°C 49.7°F9.8°C 82% 1.2 mph E1.9 kmh E 3.5 mph5.6 kmh 30.10 in1019.3 mb - 0.00 in0.0 mm 0.00 in0.0 mm
10:10 AM 55.0°F12.8°C 49.6°F9.8°C 82% 2.3 mph ESE3.7 kmh ESE 2.3 mph3.7 kmh 30.10 in1019.3 mb - 0.00 in0.0 mm 0.00 in0.0 mm
10:00 AM 55.1°F12.8°C 49.7°F9.8°C 82% 3.5 mph SE5.6 kmh SE 3.5 mph5.6 kmh 30.10 in1019.3 mb - 0.00 in0.0 mm 0.00 in0.0 mm
09:55 AM 55.0°F12.8°C 49.6°F9.8°C 82% 2.3 mph SE3.7 kmh SE 6.9 mph11.1 kmh 30.11 in1019.6 mb - 0.00 in0.0 mm 0.00 in0.0 mm
09:45 AM 54.7°F12.6°C 49.6°F9.8°C 83% 2.3 mph N3.7 kmh N 3.5 mph5.6 kmh 30.10 in1019.3 mb - 0.00 in0.0 mm 0.00 in0.0 mm
09:30 AM 54.5°F12.5°C 49.5°F9.7°C 83% 3.5 mph E5.6 kmh E 8.1 mph13.0 kmh 30.11 in1019.6 mb - 0.00 in0.0 mm 0.00 in0.0 mm
09:25 AM 54.4°F12.4°C 49.3°F9.6°C 83% 3.5 mph E5.6 kmh E 5.8 mph9.3 kmh 30.11 in1019.6 mb - 0.00 in0.0 mm 0.00 in0.0 mm
09:15 AM 54.1°F12.3°C 49.3°F9.6°C 84% Calm Calm 4.6 mph7.4 kmh 30.11 in1019.6 mb - 0.00 in0.0 mm 0.00 in0.0 mm
08:55 AM 53.2°F11.8°C 48.4°F9.1°C 84% 1.2 mph NE1.9 kmh NE 5.8 mph9.3 kmh 30.12 in1020.0 mb - 0.00 in0.0 mm 0.00 in0.0 mm
08:50 AM 53.1°F11.7°C 48.4°F9.1°C 84% 1.2 mph E1.9 kmh E 5.8 mph9.3 kmh 30.12 in1020.0 mb - 0.00 in0.0 mm 0.00 in0.0 mm
08:40 AM 52.8°F11.6°C 48.1°F8.9°C 84% 1.2 mph SE1.9 kmh SE 6.9 mph11.1 kmh 30.11 in1019.6 mb - 0.00 in0.0 mm 0.00 in0.0 mm
08:25 AM 52.5°F11.4°C 47.8°F8.8°C 84% 2.3 mph E3.7 kmh E 6.9 mph11.1 kmh 30.11 in1019.6 mb - 0.00 in0.0 mm 0.00 in0.0 mm
08:20 AM 52.4°F11.3°C 47.8°F8.8°C 84% 4.6 mph E7.4 kmh E 4.6 mph7.4 kmh 30.11 in1019.6 mb - 0.00 in0.0 mm 0.00 in0.0 mm
08:11 AM 52.1°F11.2°C 48.0°F8.9°C 86% 2.3 mph NE3.7 kmh NE 2.3 mph3.7 kmh 30.11 in1019.6 mb - 0.00 in0.0 mm 0.00 in0.0 mm
08:00 AM 52.1°F11.2°C 48.0°F8.9°C 86% Calm Calm 10.4 mph16.7 kmh 30.11 in1019.6 mb - 0.00 in0.0 mm 0.00 in0.0 mm
07:55 AM 51.9°F11.1°C 47.8°F8.8°C 86% 1.2 mph NW1.9 kmh NW 4.6 mph7.4 kmh 30.11 in1019.6 mb - 0.00 in0.0 mm 0.00 in0.0 mm
07:50 AM 51.8°F11.0°C 47.7°F8.7°C 86% 2.3 mph NNW3.7 kmh NNW 6.9 mph11.1 kmh 30.11 in1019.6 mb - 0.00 in0.0 mm 0.00 in0.0 mm
07:45 AM 51.7°F10.9°C 47.6°F8.7°C 86% 1.2 mph E1.9 kmh E 4.6 mph7.4 kmh 30.10 in1019.3 mb - 0.00 in0.0 mm 0.00 in0.0 mm
07:40 AM 51.7°F10.9°C 47.6°F8.7°C 86% 1.2 mph E1.9 kmh E 5.8 mph9.3 kmh 30.10 in1019.3 mb - 0.00 in0.0 mm 0.00 in0.0 mm
07:35 AM 51.7°F10.9°C 48.0°F8.9°C 87% 1.2 mph SE1.9 kmh SE 3.5 mph5.6 kmh 30.09 in1019.0 mb - 0.00 in0.0 mm 0.00 in0.0 mm
07:30 AM 51.7°F10.9°C 48.0°F8.9°C 87% 1.2 mph ENE1.9 kmh ENE 3.5 mph5.6 kmh 30.08 in1018.6 mb - 0.00 in0.0 mm 0.00 in0.0 mm
07:25 AM 51.8°F11.0°C 48.1°F8.9°C 87% 1.2 mph ENE1.9 kmh ENE 5.8 mph9.3 kmh 30.08 in1018.6 mb - 0.00 in0.0 mm 0.00 in0.0 mm
07:20 AM 51.8°F11.0°C 48.1°F8.9°C 87% Calm Calm 3.5 mph5.6 kmh 30.09 in1019.0 mb - 0.00 in0.0 mm 0.00 in0.0 mm
07:15 AM 51.8°F11.0°C 48.4°F9.1°C 88% Calm Calm 1.2 mph1.9 kmh 30.09 in1019.0 mb - 0.00 in0.0 mm 0.00 in0.0 mm
07:10 AM 51.9°F11.1°C 48.5°F9.2°C 88% 1.2 mph ENE1.9 kmh ENE 3.5 mph5.6 kmh 30.10 in1019.3 mb - 0.00 in0.0 mm 0.00 in0.0 mm
06:55 AM 51.9°F11.1°C 48.8°F9.3°C 89% 1.2 mph E1.9 kmh E 3.5 mph5.6 kmh 30.09 in1019.0 mb - 0.00 in0.0 mm 0.00 in0.0 mm
06:10 AM 52.3°F11.3°C 49.8°F9.9°C 91% 4.6 mph ESE7.4 kmh ESE 6.9 mph11.1 kmh 30.10 in1019.3 mb - 0.00 in0.0 mm 0.00 in0.0 mm
05:55 AM 52.4°F11.3°C 50.1°F10.1°C 92% 2.3 mph SSE3.7 kmh SSE 6.9 mph11.1 kmh 30.10 in1019.3 mb - 0.00 in0.0 mm 0.00 in0.0 mm
05:45 AM 52.5°F11.4°C 50.3°F10.2°C 92% 1.2 mph E1.9 kmh E 4.6 mph7.4 kmh 30.10 in1019.3 mb - 0.00 in0.0 mm 0.00 in0.0 mm
05:40 AM 52.5°F11.4°C 50.2°F10.1°C 92% 2.3 mph ESE3.7 kmh ESE 6.9 mph11.1 kmh 30.10 in1019.3 mb - 0.00 in0.0 mm 0.00 in0.0 mm
05:25 AM 52.7°F11.5°C 50.4°F10.2°C 92% 1.2 mph E1.9 kmh E 3.5 mph5.6 kmh 30.10 in1019.3 mb - 0.00 in0.0 mm 0.00 in0.0 mm
05:15 AM 52.8°F11.6°C 50.6°F10.3°C 92% 4.6 mph E7.4 kmh E 8.1 mph13.0 kmh 30.10 in1019.3 mb - 0.00 in0.0 mm 0.00 in0.0 mm
05:10 AM 52.9°F11.6°C 50.6°F10.3°C 92% 1.2 mph E1.9 kmh E 6.9 mph11.1 kmh 30.09 in1019.0 mb - 0.00 in0.0 mm 0.00 in0.0 mm
05:00 AM 53.0°F11.7°C 50.7°F10.4°C 92% 2.3 mph SE3.7 kmh SE 5.8 mph9.3 kmh 30.09 in1019.0 mb - 0.00 in0.0 mm 0.00 in0.0 mm
04:45 AM 53.0°F11.7°C 50.7°F10.4°C 92% 1.2 mph E1.9 kmh E 3.5 mph5.6 kmh 30.10 in1019.3 mb - 0.00 in0.0 mm 0.00 in0.0 mm
04:35 AM 53.0°F11.7°C 50.7°F10.4°C 92% 2.3 mph SE3.7 kmh SE 6.9 mph11.1 kmh 30.09 in1019.0 mb - 0.00 in0.0 mm 0.00 in0.0 mm
04:30 AM 53.0°F11.7°C 50.7°F10.4°C 92% 1.2 mph ESE1.9 kmh ESE 8.1 mph13.0 kmh 30.10 in1019.3 mb - 0.00 in0.0 mm 0.00 in0.0 mm
04:20 AM 52.9°F11.6°C 50.6°F10.3°C 92% 2.3 mph SE3.7 kmh SE 8.1 mph13.0 kmh 30.10 in1019.3 mb - 0.00 in0.0 mm 0.00 in0.0 mm
04:10 AM 53.0°F11.7°C 50.7°F10.4°C 92% 2.3 mph SSE3.7 kmh SSE -- 30.11 in1019.6 mb - 0.00 in0.0 mm 0.00 in0.0 mm
04:00 AM 53.0°F11.7°C 50.7°F10.4°C 92% 1.2 mph ESE1.9 kmh ESE 6.9 mph11.1 kmh 30.11 in1019.6 mb - 0.00 in0.0 mm 0.00 in0.0 mm
03:50 AM 53.0°F11.7°C 50.7°F10.4°C 92% 3.5 mph E5.6 kmh E 3.5 mph5.6 kmh 30.11 in1019.6 mb - 0.00 in0.0 mm 0.00 in0.0 mm
03:40 AM 53.0°F11.7°C 50.7°F10.4°C 92% 2.3 mph S3.7 kmh S 3.5 mph5.6 kmh 30.11 in1019.6 mb - 0.00 in0.0 mm 0.00 in0.0 mm
03:30 AM 52.9°F11.6°C 50.9°F10.5°C 93% 3.5 mph ESE5.6 kmh ESE 6.9 mph11.1 kmh 30.11 in1019.6 mb - 0.00 in0.0 mm 0.00 in0.0 mm
03:15 AM 52.9°F11.6°C 50.9°F10.5°C 93% 2.3 mph E3.7 kmh E 5.8 mph9.3 kmh 30.11 in1019.6 mb - 0.00 in0.0 mm 0.00 in0.0 mm
02:55 AM 52.8°F11.6°C 50.5°F10.3°C 92% 2.3 mph SE3.7 kmh SE 8.1 mph13.0 kmh 30.11 in1019.6 mb - 0.00 in0.0 mm 0.00 in0.0 mm
02:45 AM 52.8°F11.6°C 50.5°F10.3°C 92% 3.5 mph ESE5.6 kmh ESE 8.1 mph13.0 kmh 30.12 in1020.0 mb - 0.00 in0.0 mm 0.00 in0.0 mm
02:35 AM 52.8°F11.6°C 50.5°F10.3°C 92% 3.5 mph ESE5.6 kmh ESE 8.1 mph13.0 kmh 30.12 in1020.0 mb - 0.00 in0.0 mm 0.00 in0.0 mm
02:20 AM 52.8°F11.6°C 50.5°F10.3°C 92% 2.3 mph E3.7 kmh E 3.5 mph5.6 kmh 30.12 in1020.0 mb - 0.00 in0.0 mm 0.00 in0.0 mm
02:11 AM 52.7°F11.5°C 50.1°F10.1°C 91% 2.3 mph E3.7 kmh E 5.8 mph9.3 kmh 30.13 in1020.3 mb - 0.00 in0.0 mm 0.00 in0.0 mm
01:15 AM 52.6°F11.4°C 49.4°F9.7°C 89% 4.6 mph ENE7.4 kmh ENE 8.1 mph13.0 kmh 30.14 in1020.7 mb - 0.00 in0.0 mm 0.00 in0.0 mm
12:55 AM 52.6°F11.4°C 49.4°F9.7°C 89% 1.2 mph NNE1.9 kmh NNE 1.2 mph1.9 kmh 30.14 in1020.7 mb - 0.00 in0.0 mm 0.00 in0.0 mm
12:25 AM 52.7°F11.5°C 49.2°F9.6°C 88% 2.3 mph ESE3.7 kmh ESE 8.1 mph13.0 kmh 30.14 in1020.7 mb - 0.00 in0.0 mm 0.00 in0.0 mm
12:10 AM 52.7°F11.5°C 49.0°F9.4°C 87% 2.3 mph NE3.7 kmh NE 3.5 mph5.6 kmh 30.15 in1021.0 mb - 0.00 in0.0 mm 0.00 in0.0 mm
12:00 AM 52.7°F11.5°C 48.9°F9.4°C 87% 3.5 mph SE5.6 kmh SE 5.8 mph9.3 kmh 30.15 in1021.0 mb - 0.00 in0.0 mm 0.00 in0.0 mm